sensor_id;sensor_type;location;lat;lon;timestamp;P1;durP1;ratioP1;P2;durP2;ratioP2
37805;SDS011;25082;50.870;0.022;2022-07-23T00:01:23;4.63;;;1.77;;
37805;SDS011;25082;50.870;0.022;2022-07-23T00:03:50;3.00;;;1.38;;
37805;SDS011;25082;50.870;0.022;2022-07-23T00:06:17;3.25;;;1.73;;
37805;SDS011;25082;50.870;0.022;2022-07-23T00:08:42;4.00;;;1.35;;
37805;SDS011;25082;50.870;0.022;2022-07-23T00:11:08;2.72;;;1.42;;
37805;SDS011;25082;50.870;0.022;2022-07-23T00:13:34;3.97;;;1.92;;
37805;SDS011;25082;50.870;0.022;2022-07-23T00:16:00;3.33;;;1.58;;
37805;SDS011;25082;50.870;0.022;2022-07-23T00:18:26;1.80;;;1.33;;
37805;SDS011;25082;50.870;0.022;2022-07-23T00:20:53;3.30;;;2.00;;
37805;SDS011;25082;50.870;0.022;2022-07-23T00:23:18;1.98;;;1.38;;
37805;SDS011;25082;50.870;0.022;2022-07-23T00:25:44;2.30;;;1.52;;
37805;SDS011;25082;50.870;0.022;2022-07-23T00:28:11;3.92;;;1.60;;
37805;SDS011;25082;50.870;0.022;2022-07-23T00:30:37;3.38;;;1.63;;
37805;SDS011;25082;50.870;0.022;2022-07-23T00:33:03;3.85;;;1.55;;
37805;SDS011;25082;50.870;0.022;2022-07-23T00:35:33;2.75;;;1.27;;
37805;SDS011;25082;50.870;0.022;2022-07-23T00:38:01;1.98;;;1.42;;
37805;SDS011;25082;50.870;0.022;2022-07-23T00:40:28;2.47;;;1.60;;
37805;SDS011;25082;50.870;0.022;2022-07-23T00:42:54;2.80;;;1.48;;
37805;SDS011;25082;50.870;0.022;2022-07-23T00:45:20;2.63;;;1.45;;
37805;SDS011;25082;50.870;0.022;2022-07-23T00:47:46;3.65;;;1.40;;
37805;SDS011;25082;50.870;0.022;2022-07-23T00:50:12;2.53;;;1.40;;
37805;SDS011;25082;50.870;0.022;2022-07-23T00:52:39;1.65;;;1.35;;
37805;SDS011;25082;50.870;0.022;2022-07-23T00:55:06;1.30;;;1.20;;
37805;SDS011;25082;50.870;0.022;2022-07-23T00:57:33;1.75;;;1.38;;
37805;SDS011;25082;50.870;0.022;2022-07-23T00:59:59;3.53;;;1.40;;
37805;SDS011;25082;50.870;0.022;2022-07-23T01:02:25;2.80;;;1.85;;
37805;SDS011;25082;50.870;0.022;2022-07-23T01:04:52;2.10;;;1.38;;
37805;SDS011;25082;50.870;0.022;2022-07-23T01:07:19;2.13;;;1.30;;
37805;SDS011;25082;50.870;0.022;2022-07-23T01:09:45;3.05;;;1.80;;
37805;SDS011;25082;50.870;0.022;2022-07-23T01:12:11;2.35;;;1.60;;
37805;SDS011;25082;50.870;0.022;2022-07-23T01:14:37;3.10;;;1.33;;
37805;SDS011;25082;50.870;0.022;2022-07-23T01:17:03;2.90;;;1.27;;
37805;SDS011;25082;50.870;0.022;2022-07-23T01:19:29;2.58;;;1.45;;
37805;SDS011;25082;50.870;0.022;2022-07-23T01:21:56;2.75;;;1.50;;
37805;SDS011;25082;50.870;0.022;2022-07-23T01:24:23;2.28;;;1.75;;
37805;SDS011;25082;50.870;0.022;2022-07-23T01:26:49;2.78;;;1.30;;
37805;SDS011;25082;50.870;0.022;2022-07-23T01:29:15;1.33;;;1.20;;
37805;SDS011;25082;50.870;0.022;2022-07-23T01:31:41;5.40;;;1.70;;
37805;SDS011;25082;50.870;0.022;2022-07-23T01:34:08;1.80;;;1.20;;
37805;SDS011;25082;50.870;0.022;2022-07-23T01:36:34;1.42;;;1.05;;
37805;SDS011;25082;50.870;0.022;2022-07-23T01:39:01;3.22;;;1.48;;
37805;SDS011;25082;50.870;0.022;2022-07-23T01:41:27;1.85;;;1.65;;
37805;SDS011;25082;50.870;0.022;2022-07-23T01:43:53;2.75;;;1.40;;
37805;SDS011;25082;50.870;0.022;2022-07-23T01:46:19;1.95;;;1.20;;
37805;SDS011;25082;50.870;0.022;2022-07-23T01:48:45;1.85;;;1.48;;
37805;SDS011;25082;50.870;0.022;2022-07-23T01:51:10;2.45;;;1.70;;
37805;SDS011;25082;50.870;0.022;2022-07-23T01:53:36;2.35;;;1.45;;
37805;SDS011;25082;50.870;0.022;2022-07-23T01:56:02;1.88;;;1.42;;
37805;SDS011;25082;50.870;0.022;2022-07-23T01:58:28;1.95;;;1.35;;
37805;SDS011;25082;50.870;0.022;2022-07-23T02:00:54;2.95;;;1.70;;
37805;SDS011;25082;50.870;0.022;2022-07-23T02:03:21;2.10;;;1.50;;
37805;SDS011;25082;50.870;0.022;2022-07-23T02:05:47;4.10;;;1.67;;
37805;SDS011;25082;50.870;0.022;2022-07-23T02:08:13;2.25;;;1.33;;
37805;SDS011;25082;50.870;0.022;2022-07-23T02:10:39;1.60;;;1.17;;
37805;SDS011;25082;50.870;0.022;2022-07-23T02:13:05;2.15;;;1.40;;
37805;SDS011;25082;50.870;0.022;2022-07-23T02:15:31;1.60;;;1.27;;
37805;SDS011;25082;50.870;0.022;2022-07-23T02:17:57;2.25;;;1.30;;
37805;SDS011;25082;50.870;0.022;2022-07-23T02:20:23;2.47;;;1.30;;
37805;SDS011;25082;50.870;0.022;2022-07-23T02:22:49;1.98;;;1.40;;
37805;SDS011;25082;50.870;0.022;2022-07-23T02:25:14;1.42;;;1.20;;
37805;SDS011;25082;50.870;0.022;2022-07-23T02:27:40;1.65;;;1.50;;
37805;SDS011;25082;50.870;0.022;2022-07-23T02:30:06;1.45;;;1.35;;
37805;SDS011;25082;50.870;0.022;2022-07-23T02:32:32;1.52;;;1.30;;
37805;SDS011;25082;50.870;0.022;2022-07-23T02:34:58;2.53;;;1.50;;
37805;SDS011;25082;50.870;0.022;2022-07-23T02:37:24;2.40;;;1.38;;
37805;SDS011;25082;50.870;0.022;2022-07-23T02:39:50;2.20;;;1.55;;
37805;SDS011;25082;50.870;0.022;2022-07-23T02:42:16;2.25;;;1.35;;
37805;SDS011;25082;50.870;0.022;2022-07-23T02:44:42;2.03;;;1.48;;
37805;SDS011;25082;50.870;0.022;2022-07-23T02:47:08;2.70;;;1.58;;
37805;SDS011;25082;50.870;0.022;2022-07-23T02:49:34;4.25;;;2.28;;
37805;SDS011;25082;50.870;0.022;2022-07-23T02:52:00;2.95;;;1.50;;
37805;SDS011;25082;50.870;0.022;2022-07-23T02:54:26;2.53;;;1.77;;
37805;SDS011;25082;50.870;0.022;2022-07-23T02:56:52;2.80;;;1.48;;
37805;SDS011;25082;50.870;0.022;2022-07-23T02:59:18;2.42;;;1.38;;
37805;SDS011;25082;50.870;0.022;2022-07-23T03:01:44;1.45;;;1.27;;
37805;SDS011;25082;50.870;0.022;2022-07-23T03:04:10;3.03;;;1.50;;
37805;SDS011;25082;50.870;0.022;2022-07-23T03:06:37;2.30;;;1.58;;
37805;SDS011;25082;50.870;0.022;2022-07-23T03:09:03;1.88;;;1.27;;
37805;SDS011;25082;50.870;0.022;2022-07-23T03:11:29;2.30;;;1.67;;
37805;SDS011;25082;50.870;0.022;2022-07-23T03:13:55;2.35;;;1.48;;
37805;SDS011;25082;50.870;0.022;2022-07-23T03:16:21;1.40;;;1.05;;
37805;SDS011;25082;50.870;0.022;2022-07-23T03:18:47;2.42;;;1.50;;
37805;SDS011;25082;50.870;0.022;2022-07-23T03:21:12;2.67;;;1.70;;
37805;SDS011;25082;50.870;0.022;2022-07-23T03:23:38;2.67;;;1.52;;
37805;SDS011;25082;50.870;0.022;2022-07-23T03:26:04;2.28;;;1.50;;
37805;SDS011;25082;50.870;0.022;2022-07-23T03:28:30;1.38;;;1.15;;
37805;SDS011;25082;50.870;0.022;2022-07-23T03:30:56;2.70;;;1.40;;
37805;SDS011;25082;50.870;0.022;2022-07-23T03:33:22;1.85;;;1.48;;
37805;SDS011;25082;50.870;0.022;2022-07-23T03:35:48;2.30;;;1.65;;
37805;SDS011;25082;50.870;0.022;2022-07-23T03:38:14;3.28;;;1.45;;
37805;SDS011;25082;50.870;0.022;2022-07-23T03:40:40;2.63;;;1.58;;
37805;SDS011;25082;50.870;0.022;2022-07-23T03:43:06;3.33;;;1.63;;
37805;SDS011;25082;50.870;0.022;2022-07-23T03:45:32;3.38;;;1.50;;
37805;SDS011;25082;50.870;0.022;2022-07-23T03:47:58;3.00;;;1.60;;
37805;SDS011;25082;50.870;0.022;2022-07-23T03:50:24;1.58;;;1.48;;
37805;SDS011;25082;50.870;0.022;2022-07-23T03:52:51;1.95;;;1.55;;
37805;SDS011;25082;50.870;0.022;2022-07-23T03:55:17;2.58;;;1.27;;
37805;SDS011;25082;50.870;0.022;2022-07-23T03:57:42;2.60;;;1.58;;
37805;SDS011;25082;50.870;0.022;2022-07-23T04:00:09;1.92;;;1.52;;
37805;SDS011;25082;50.870;0.022;2022-07-23T04:02:35;1.48;;;1.30;;
37805;SDS011;25082;50.870;0.022;2022-07-23T04:05:02;3.42;;;1.52;;
37805;SDS011;25082;50.870;0.022;2022-07-23T04:07:28;3.63;;;1.40;;
37805;SDS011;25082;50.870;0.022;2022-07-23T04:09:54;1.55;;;1.05;;
37805;SDS011;25082;50.870;0.022;2022-07-23T04:12:20;2.05;;;1.58;;
37805;SDS011;25082;50.870;0.022;2022-07-23T04:14:45;1.77;;;1.48;;
37805;SDS011;25082;50.870;0.022;2022-07-23T04:17:11;2.72;;;1.45;;
37805;SDS011;25082;50.870;0.022;2022-07-23T04:19:37;2.72;;;1.38;;
37805;SDS011;25082;50.870;0.022;2022-07-23T04:22:06;4.10;;;1.95;;
37805;SDS011;25082;50.870;0.022;2022-07-23T04:24:33;2.97;;;1.30;;
37805;SDS011;25082;50.870;0.022;2022-07-23T04:26:59;1.85;;;1.40;;
37805;SDS011;25082;50.870;0.022;2022-07-23T04:29:25;2.85;;;1.73;;
37805;SDS011;25082;50.870;0.022;2022-07-23T04:31:50;1.20;;;1.10;;
37805;SDS011;25082;50.870;0.022;2022-07-23T04:34:16;3.33;;;1.40;;
37805;SDS011;25082;50.870;0.022;2022-07-23T04:36:42;2.13;;;1.58;;
37805;SDS011;25082;50.870;0.022;2022-07-23T04:39:08;3.17;;;1.40;;
37805;SDS011;25082;50.870;0.022;2022-07-23T04:41:34;2.00;;;1.40;;
37805;SDS011;25082;50.870;0.022;2022-07-23T04:44:00;1.90;;;1.33;;
37805;SDS011;25082;50.870;0.022;2022-07-23T04:46:26;3.33;;;1.45;;
37805;SDS011;25082;50.870;0.022;2022-07-23T04:48:52;2.47;;;1.58;;
37805;SDS011;25082;50.870;0.022;2022-07-23T04:51:18;1.88;;;1.67;;
37805;SDS011;25082;50.870;0.022;2022-07-23T04:53:44;2.22;;;1.63;;
37805;SDS011;25082;50.870;0.022;2022-07-23T04:56:10;2.17;;;1.55;;
37805;SDS011;25082;50.870;0.022;2022-07-23T04:58:36;2.88;;;1.67;;
37805;SDS011;25082;50.870;0.022;2022-07-23T05:01:02;2.08;;;1.40;;
37805;SDS011;25082;50.870;0.022;2022-07-23T05:03:28;2.83;;;1.50;;
37805;SDS011;25082;50.870;0.022;2022-07-23T05:05:54;1.42;;;1.17;;
37805;SDS011;25082;50.870;0.022;2022-07-23T05:08:19;1.65;;;1.40;;
37805;SDS011;25082;50.870;0.022;2022-07-23T05:10:45;2.25;;;1.42;;
37805;SDS011;25082;50.870;0.022;2022-07-23T05:13:12;4.50;;;1.60;;
37805;SDS011;25082;50.870;0.022;2022-07-23T05:15:40;3.92;;;1.67;;
37805;SDS011;25082;50.870;0.022;2022-07-23T05:18:06;2.78;;;1.65;;
37805;SDS011;25082;50.870;0.022;2022-07-23T05:20:32;3.20;;;1.63;;
37805;SDS011;25082;50.870;0.022;2022-07-23T05:22:57;1.40;;;1.30;;
37805;SDS011;25082;50.870;0.022;2022-07-23T05:25:23;2.47;;;1.50;;
37805;SDS011;25082;50.870;0.022;2022-07-23T05:27:49;2.78;;;1.40;;
37805;SDS011;25082;50.870;0.022;2022-07-23T05:30:15;1.75;;;1.23;;
37805;SDS011;25082;50.870;0.022;2022-07-23T05:32:41;2.13;;;1.25;;
37805;SDS011;25082;50.870;0.022;2022-07-23T05:35:07;1.75;;;1.50;;
37805;SDS011;25082;50.870;0.022;2022-07-23T05:37:33;2.42;;;1.45;;
37805;SDS011;25082;50.870;0.022;2022-07-23T05:40:02;2.35;;;1.70;;
37805;SDS011;25082;50.870;0.022;2022-07-23T05:42:31;1.55;;;1.08;;
37805;SDS011;25082;50.870;0.022;2022-07-23T05:44:57;3.88;;;1.30;;
37805;SDS011;25082;50.870;0.022;2022-07-23T05:47:22;2.40;;;1.20;;
37805;SDS011;25082;50.870;0.022;2022-07-23T05:49:48;3.72;;;1.67;;
37805;SDS011;25082;50.870;0.022;2022-07-23T05:52:14;2.17;;;1.60;;
37805;SDS011;25082;50.870;0.022;2022-07-23T05:54:40;2.33;;;1.23;;
37805;SDS011;25082;50.870;0.022;2022-07-23T05:57:06;2.65;;;1.50;;
37805;SDS011;25082;50.870;0.022;2022-07-23T05:59:32;1.83;;;1.48;;
37805;SDS011;25082;50.870;0.022;2022-07-23T06:01:58;2.00;;;1.10;;
37805;SDS011;25082;50.870;0.022;2022-07-23T06:04:24;2.40;;;1.27;;
37805;SDS011;25082;50.870;0.022;2022-07-23T06:06:49;2.35;;;1.50;;
37805;SDS011;25082;50.870;0.022;2022-07-23T06:09:15;1.60;;;1.50;;
37805;SDS011;25082;50.870;0.022;2022-07-23T06:11:41;2.03;;;1.38;;
37805;SDS011;25082;50.870;0.022;2022-07-23T06:14:07;2.58;;;1.42;;
37805;SDS011;25082;50.870;0.022;2022-07-23T06:16:32;2.95;;;1.55;;
37805;SDS011;25082;50.870;0.022;2022-07-23T06:18:58;2.40;;;1.35;;
37805;SDS011;25082;50.870;0.022;2022-07-23T06:21:24;2.55;;;1.70;;
37805;SDS011;25082;50.870;0.022;2022-07-23T06:23:50;2.17;;;1.35;;
37805;SDS011;25082;50.870;0.022;2022-07-23T06:26:15;2.38;;;1.80;;
37805;SDS011;25082;50.870;0.022;2022-07-23T06:28:41;2.35;;;1.63;;
37805;SDS011;25082;50.870;0.022;2022-07-23T06:31:07;2.80;;;1.70;;
37805;SDS011;25082;50.870;0.022;2022-07-23T06:33:33;2.25;;;1.42;;
37805;SDS011;25082;50.870;0.022;2022-07-23T06:35:59;2.80;;;1.65;;
37805;SDS011;25082;50.870;0.022;2022-07-23T06:38:25;1.83;;;1.42;;
37805;SDS011;25082;50.870;0.022;2022-07-23T06:40:51;1.77;;;1.23;;
37805;SDS011;25082;50.870;0.022;2022-07-23T06:43:16;1.83;;;1.55;;
37805;SDS011;25082;50.870;0.022;2022-07-23T06:45:42;2.80;;;1.80;;
37805;SDS011;25082;50.870;0.022;2022-07-23T06:48:08;1.85;;;1.50;;
37805;SDS011;25082;50.870;0.022;2022-07-23T06:50:34;1.77;;;1.30;;
37805;SDS011;25082;50.870;0.022;2022-07-23T06:53:00;2.03;;;1.30;;
37805;SDS011;25082;50.870;0.022;2022-07-23T06:55:26;2.75;;;1.58;;
37805;SDS011;25082;50.870;0.022;2022-07-23T06:57:52;3.00;;;1.55;;
37805;SDS011;25082;50.870;0.022;2022-07-23T07:00:18;3.03;;;1.67;;
37805;SDS011;25082;50.870;0.022;2022-07-23T07:02:44;1.67;;;1.40;;
37805;SDS011;25082;50.870;0.022;2022-07-23T07:05:09;2.20;;;1.73;;
37805;SDS011;25082;50.870;0.022;2022-07-23T07:07:35;1.80;;;1.42;;
37805;SDS011;25082;50.870;0.022;2022-07-23T07:10:02;2.47;;;1.67;;
37805;SDS011;25082;50.870;0.022;2022-07-23T07:12:28;1.67;;;1.10;;
37805;SDS011;25082;50.870;0.022;2022-07-23T07:14:54;2.72;;;1.30;;
37805;SDS011;25082;50.870;0.022;2022-07-23T07:17:20;3.67;;;1.80;;
37805;SDS011;25082;50.870;0.022;2022-07-23T07:19:45;3.03;;;1.80;;
37805;SDS011;25082;50.870;0.022;2022-07-23T07:22:11;3.10;;;1.73;;
37805;SDS011;25082;50.870;0.022;2022-07-23T07:24:37;2.15;;;1.42;;
37805;SDS011;25082;50.870;0.022;2022-07-23T07:27:03;1.95;;;1.60;;
37805;SDS011;25082;50.870;0.022;2022-07-23T07:29:29;2.53;;;1.50;;
37805;SDS011;25082;50.870;0.022;2022-07-23T07:31:55;2.63;;;1.20;;
37805;SDS011;25082;50.870;0.022;2022-07-23T07:34:20;2.47;;;1.33;;
37805;SDS011;25082;50.870;0.022;2022-07-23T07:36:46;2.35;;;1.30;;
37805;SDS011;25082;50.870;0.022;2022-07-23T07:39:12;1.77;;;1.65;;
37805;SDS011;25082;50.870;0.022;2022-07-23T07:41:37;4.13;;;1.70;;
37805;SDS011;25082;50.870;0.022;2022-07-23T07:44:03;4.40;;;1.60;;
37805;SDS011;25082;50.870;0.022;2022-07-23T07:46:29;2.45;;;1.50;;
37805;SDS011;25082;50.870;0.022;2022-07-23T07:48:55;2.33;;;1.63;;
37805;SDS011;25082;50.870;0.022;2022-07-23T07:51:21;2.35;;;1.80;;
37805;SDS011;25082;50.870;0.022;2022-07-23T07:53:47;1.92;;;1.73;;
37805;SDS011;25082;50.870;0.022;2022-07-23T07:56:13;1.67;;;1.52;;
37805;SDS011;25082;50.870;0.022;2022-07-23T07:58:39;3.33;;;1.77;;
37805;SDS011;25082;50.870;0.022;2022-07-23T08:01:04;3.70;;;1.90;;
37805;SDS011;25082;50.870;0.022;2022-07-23T08:03:30;7.72;;;2.00;;
37805;SDS011;25082;50.870;0.022;2022-07-23T08:05:56;2.75;;;1.75;;
37805;SDS011;25082;50.870;0.022;2022-07-23T08:08:22;7.75;;;2.38;;
37805;SDS011;25082;50.870;0.022;2022-07-23T08:10:47;7.55;;;2.17;;
37805;SDS011;25082;50.870;0.022;2022-07-23T08:13:14;2.63;;;2.00;;
37805;SDS011;25082;50.870;0.022;2022-07-23T08:15:41;4.53;;;2.20;;
37805;SDS011;25082;50.870;0.022;2022-07-23T08:18:07;7.03;;;2.60;;
37805;SDS011;25082;50.870;0.022;2022-07-23T08:20:33;5.93;;;2.25;;
37805;SDS011;25082;50.870;0.022;2022-07-23T08:23:00;15.68;;;3.00;;
37805;SDS011;25082;50.870;0.022;2022-07-23T08:25:31;11.10;;;3.35;;
37805;SDS011;25082;50.870;0.022;2022-07-23T08:27:59;7.93;;;3.22;;
37805;SDS011;25082;50.870;0.022;2022-07-23T08:30:26;9.90;;;3.95;;
37805;SDS011;25082;50.870;0.022;2022-07-23T08:32:54;5.78;;;3.53;;
37805;SDS011;25082;50.870;0.022;2022-07-23T08:37:58;11.30;;;4.20;;
37805;SDS011;25082;50.870;0.022;2022-07-23T08:40:25;11.43;;;3.60;;
37805;SDS011;25082;50.870;0.022;2022-07-23T08:42:53;7.75;;;3.30;;
37805;SDS011;25082;50.870;0.022;2022-07-23T08:45:20;7.50;;;3.42;;
37805;SDS011;25082;50.870;0.022;2022-07-23T08:47:48;10.43;;;3.58;;
37805;SDS011;25082;50.870;0.022;2022-07-23T08:50:15;13.23;;;4.00;;
37805;SDS011;25082;50.870;0.022;2022-07-23T08:52:41;11.77;;;5.18;;
37805;SDS011;25082;50.870;0.022;2022-07-23T08:55:07;9.00;;;3.25;;
37805;SDS011;25082;50.870;0.022;2022-07-23T08:57:33;7.40;;;4.03;;
37805;SDS011;25082;50.870;0.022;2022-07-23T09:00:00;7.97;;;3.78;;
37805;SDS011;25082;50.870;0.022;2022-07-23T09:02:26;13.55;;;4.55;;
37805;SDS011;25082;50.870;0.022;2022-07-23T09:04:52;10.10;;;4.15;;
37805;SDS011;25082;50.870;0.022;2022-07-23T09:07:17;11.23;;;4.43;;
37805;SDS011;25082;50.870;0.022;2022-07-23T09:09:43;6.45;;;3.55;;
37805;SDS011;25082;50.870;0.022;2022-07-23T09:12:09;8.30;;;3.85;;
37805;SDS011;25082;50.870;0.022;2022-07-23T09:14:42;12.95;;;3.65;;
37805;SDS011;25082;50.870;0.022;2022-07-23T09:17:16;9.15;;;3.78;;
37805;SDS011;25082;50.870;0.022;2022-07-23T09:19:43;9.52;;;4.05;;
37805;SDS011;25082;50.870;0.022;2022-07-23T09:22:22;8.05;;;4.03;;
37805;SDS011;25082;50.870;0.022;2022-07-23T09:25:08;14.17;;;4.60;;
37805;SDS011;25082;50.870;0.022;2022-07-23T09:27:53;6.82;;;3.50;;
37805;SDS011;25082;50.870;0.022;2022-07-23T09:30:22;15.40;;;3.80;;
37805;SDS011;25082;50.870;0.022;2022-07-23T09:33:05;10.95;;;3.95;;
37805;SDS011;25082;50.870;0.022;2022-07-23T09:35:45;23.55;;;5.43;;
37805;SDS011;25082;50.870;0.022;2022-07-23T09:38:16;18.90;;;4.40;;
37805;SDS011;25082;50.870;0.022;2022-07-23T09:40:42;12.88;;;3.85;;
37805;SDS011;25082;50.870;0.022;2022-07-23T09:43:09;13.15;;;3.75;;
37805;SDS011;25082;50.870;0.022;2022-07-23T09:45:35;8.35;;;3.97;;
37805;SDS011;25082;50.870;0.022;2022-07-23T09:48:12;10.70;;;3.70;;
37805;SDS011;25082;50.870;0.022;2022-07-23T09:50:43;8.68;;;3.13;;
37805;SDS011;25082;50.870;0.022;2022-07-23T09:53:09;5.40;;;2.78;;
37805;SDS011;25082;50.870;0.022;2022-07-23T09:58:19;6.22;;;3.15;;
37805;SDS011;25082;50.870;0.022;2022-07-23T10:00:48;7.03;;;3.05;;
37805;SDS011;25082;50.870;0.022;2022-07-23T10:03:15;6.07;;;3.28;;
37805;SDS011;25082;50.870;0.022;2022-07-23T10:05:42;7.78;;;3.28;;
37805;SDS011;25082;50.870;0.022;2022-07-23T10:08:11;5.90;;;3.00;;
37805;SDS011;25082;50.870;0.022;2022-07-23T10:10:40;4.97;;;2.83;;
37805;SDS011;25082;50.870;0.022;2022-07-23T10:13:06;6.20;;;3.47;;
37805;SDS011;25082;50.870;0.022;2022-07-23T10:15:36;6.03;;;3.25;;
37805;SDS011;25082;50.870;0.022;2022-07-23T10:18:04;5.20;;;2.88;;
37805;SDS011;25082;50.870;0.022;2022-07-23T10:20:31;7.22;;;2.97;;
37805;SDS011;25082;50.870;0.022;2022-07-23T10:23:02;5.68;;;2.63;;
37805;SDS011;25082;50.870;0.022;2022-07-23T10:31:56;4.30;;;2.92;;
37805;SDS011;25082;50.870;0.022;2022-07-23T10:33:57;4.85;;;2.78;;
37805;SDS011;25082;50.870;0.022;2022-07-23T10:42:36;5.68;;;2.50;;
37805;SDS011;25082;50.870;0.022;2022-07-23T10:45:07;3.10;;;2.50;;
37805;SDS011;25082;50.870;0.022;2022-07-23T10:47:47;3.38;;;2.40;;
37805;SDS011;25082;50.870;0.022;2022-07-23T10:50:23;4.65;;;2.40;;
37805;SDS011;25082;50.870;0.022;2022-07-23T10:57:57;8.75;;;2.55;;
37805;SDS011;25082;50.870;0.022;2022-07-23T11:00:23;11.38;;;3.25;;
37805;SDS011;25082;50.870;0.022;2022-07-23T11:02:51;7.45;;;2.72;;
37805;SDS011;25082;50.870;0.022;2022-07-23T11:05:22;10.50;;;2.97;;
37805;SDS011;25082;50.870;0.022;2022-07-23T11:10:35;6.53;;;2.80;;
37805;SDS011;25082;50.870;0.022;2022-07-23T11:24:08;7.13;;;2.47;;
37805;SDS011;25082;50.870;0.022;2022-07-23T11:32:18;9.00;;;2.70;;
37805;SDS011;25082;50.870;0.022;2022-07-23T11:34:48;4.88;;;2.30;;
37805;SDS011;25082;50.870;0.022;2022-07-23T11:37:48;4.63;;;2.10;;
37805;SDS011;25082;50.870;0.022;2022-07-23T11:40:08;3.80;;;2.17;;
37805;SDS011;25082;50.870;0.022;2022-07-23T11:42:39;3.85;;;2.50;;
37805;SDS011;25082;50.870;0.022;2022-07-23T11:45:20;5.95;;;2.33;;
37805;SDS011;25082;50.870;0.022;2022-07-23T11:47:46;3.97;;;2.30;;
37805;SDS011;25082;50.870;0.022;2022-07-23T11:50:12;7.20;;;2.42;;
37805;SDS011;25082;50.870;0.022;2022-07-23T11:52:38;6.40;;;3.00;;
37805;SDS011;25082;50.870;0.022;2022-07-23T11:55:05;5.55;;;2.28;;
37805;SDS011;25082;50.870;0.022;2022-07-23T11:57:34;8.20;;;2.38;;
37805;SDS011;25082;50.870;0.022;2022-07-23T12:02:38;5.97;;;2.90;;
37805;SDS011;25082;50.870;0.022;2022-07-23T12:05:21;10.27;;;2.70;;
37805;SDS011;25082;50.870;0.022;2022-07-23T12:07:50;6.43;;;3.15;;
37805;SDS011;25082;50.870;0.022;2022-07-23T12:15:11;6.57;;;4.50;;
37805;SDS011;25082;50.870;0.022;2022-07-23T12:17:38;11.50;;;5.25;;
37805;SDS011;25082;50.870;0.022;2022-07-23T12:20:07;12.05;;;8.10;;
37805;SDS011;25082;50.870;0.022;2022-07-23T12:22:37;12.90;;;7.45;;
37805;SDS011;25082;50.870;0.022;2022-07-23T12:25:09;11.93;;;6.35;;
37805;SDS011;25082;50.870;0.022;2022-07-23T12:27:41;7.10;;;4.47;;
37805;SDS011;25082;50.870;0.022;2022-07-23T12:30:17;7.68;;;4.78;;
37805;SDS011;25082;50.870;0.022;2022-07-23T12:32:44;5.88;;;4.03;;
37805;SDS011;25082;50.870;0.022;2022-07-23T12:35:11;8.80;;;3.45;;
37805;SDS011;25082;50.870;0.022;2022-07-23T12:37:38;7.43;;;3.50;;
37805;SDS011;25082;50.870;0.022;2022-07-23T12:42:57;4.18;;;2.63;;
37805;SDS011;25082;50.870;0.022;2022-07-23T12:45:24;4.07;;;2.53;;
37805;SDS011;25082;50.870;0.022;2022-07-23T12:47:59;12.05;;;3.15;;
37805;SDS011;25082;50.870;0.022;2022-07-23T12:53:03;4.50;;;2.40;;
37805;SDS011;25082;50.870;0.022;2022-07-23T12:55:38;4.82;;;2.50;;
37805;SDS011;25082;50.870;0.022;2022-07-23T12:58:06;4.15;;;2.33;;
37805;SDS011;25082;50.870;0.022;2022-07-23T13:03:23;5.47;;;2.20;;
37805;SDS011;25082;50.870;0.022;2022-07-23T13:05:59;5.43;;;1.92;;
37805;SDS011;25082;50.870;0.022;2022-07-23T13:08:27;5.90;;;2.30;;
37805;SDS011;25082;50.870;0.022;2022-07-23T13:10:55;6.15;;;2.22;;
37805;SDS011;25082;50.870;0.022;2022-07-23T13:13:25;4.30;;;2.30;;
37805;SDS011;25082;50.870;0.022;2022-07-23T13:15:53;4.10;;;2.10;;
37805;SDS011;25082;50.870;0.022;2022-07-23T13:18:19;4.40;;;2.05;;
37805;SDS011;25082;50.870;0.022;2022-07-23T13:20:46;5.53;;;1.70;;
37805;SDS011;25082;50.870;0.022;2022-07-23T13:23:13;4.45;;;1.83;;
37805;SDS011;25082;50.870;0.022;2022-07-23T13:25:40;3.60;;;2.00;;
37805;SDS011;25082;50.870;0.022;2022-07-23T13:28:06;6.03;;;1.83;;
37805;SDS011;25082;50.870;0.022;2022-07-23T13:30:32;4.47;;;2.15;;
37805;SDS011;25082;50.870;0.022;2022-07-23T13:32:59;3.50;;;2.08;;
37805;SDS011;25082;50.870;0.022;2022-07-23T13:35:26;4.47;;;1.80;;
37805;SDS011;25082;50.870;0.022;2022-07-23T13:37:52;6.18;;;2.08;;
37805;SDS011;25082;50.870;0.022;2022-07-23T13:40:18;5.60;;;2.13;;
37805;SDS011;25082;50.870;0.022;2022-07-23T13:42:44;4.30;;;2.00;;
37805;SDS011;25082;50.870;0.022;2022-07-23T13:45:10;3.83;;;2.05;;
37805;SDS011;25082;50.870;0.022;2022-07-23T13:47:36;5.63;;;2.13;;
37805;SDS011;25082;50.870;0.022;2022-07-23T13:50:01;5.63;;;2.17;;
37805;SDS011;25082;50.870;0.022;2022-07-23T13:52:28;5.47;;;1.92;;
37805;SDS011;25082;50.870;0.022;2022-07-23T13:54:54;9.95;;;2.60;;
37805;SDS011;25082;50.870;0.022;2022-07-23T13:57:19;5.25;;;1.75;;
37805;SDS011;25082;50.870;0.022;2022-07-23T13:59:45;4.38;;;1.85;;
37805;SDS011;25082;50.870;0.022;2022-07-23T14:02:11;5.03;;;2.00;;
37805;SDS011;25082;50.870;0.022;2022-07-23T14:04:40;5.40;;;1.60;;
37805;SDS011;25082;50.870;0.022;2022-07-23T14:07:06;5.57;;;1.70;;
37805;SDS011;25082;50.870;0.022;2022-07-23T14:09:32;3.80;;;1.63;;
37805;SDS011;25082;50.870;0.022;2022-07-23T14:11:59;6.50;;;1.42;;
37805;SDS011;25082;50.870;0.022;2022-07-23T14:14:25;2.88;;;1.60;;
37805;SDS011;25082;50.870;0.022;2022-07-23T14:16:50;6.95;;;2.13;;
37805;SDS011;25082;50.870;0.022;2022-07-23T14:19:16;3.88;;;1.55;;
37805;SDS011;25082;50.870;0.022;2022-07-23T14:21:42;5.25;;;1.77;;
37805;SDS011;25082;50.870;0.022;2022-07-23T14:24:08;5.25;;;1.90;;
37805;SDS011;25082;50.870;0.022;2022-07-23T14:26:34;3.55;;;1.85;;
37805;SDS011;25082;50.870;0.022;2022-07-23T14:29:00;3.45;;;1.80;;
37805;SDS011;25082;50.870;0.022;2022-07-23T14:31:26;4.88;;;1.70;;
37805;SDS011;25082;50.870;0.022;2022-07-23T14:33:52;4.43;;;1.42;;
37805;SDS011;25082;50.870;0.022;2022-07-23T14:36:18;7.70;;;1.38;;
37805;SDS011;25082;50.870;0.022;2022-07-23T14:38:43;4.72;;;1.52;;
37805;SDS011;25082;50.870;0.022;2022-07-23T14:41:09;4.28;;;1.50;;
37805;SDS011;25082;50.870;0.022;2022-07-23T14:43:36;2.65;;;1.33;;
37805;SDS011;25082;50.870;0.022;2022-07-23T14:46:02;2.50;;;1.70;;
37805;SDS011;25082;50.870;0.022;2022-07-23T14:48:28;3.13;;;1.50;;
37805;SDS011;25082;50.870;0.022;2022-07-23T14:50:54;3.47;;;1.30;;
37805;SDS011;25082;50.870;0.022;2022-07-23T14:53:19;5.53;;;1.23;;
37805;SDS011;25082;50.870;0.022;2022-07-23T14:55:45;4.10;;;1.35;;
37805;SDS011;25082;50.870;0.022;2022-07-23T14:58:11;3.90;;;1.20;;
37805;SDS011;25082;50.870;0.022;2022-07-23T15:00:37;13.45;;;1.85;;
37805;SDS011;25082;50.870;0.022;2022-07-23T15:03:03;6.10;;;1.40;;
37805;SDS011;25082;50.870;0.022;2022-07-23T15:05:28;7.53;;;1.60;;
37805;SDS011;25082;50.870;0.022;2022-07-23T15:07:55;9.77;;;1.90;;
37805;SDS011;25082;50.870;0.022;2022-07-23T15:10:21;8.15;;;1.70;;
37805;SDS011;25082;50.870;0.022;2022-07-23T15:12:47;9.07;;;2.13;;
37805;SDS011;25082;50.870;0.022;2022-07-23T15:15:13;5.32;;;1.40;;
37805;SDS011;25082;50.870;0.022;2022-07-23T15:17:39;5.47;;;1.42;;
37805;SDS011;25082;50.870;0.022;2022-07-23T15:20:05;2.60;;;1.30;;
37805;SDS011;25082;50.870;0.022;2022-07-23T15:22:32;3.03;;;1.52;;
37805;SDS011;25082;50.870;0.022;2022-07-23T15:24:57;2.67;;;1.38;;
37805;SDS011;25082;50.870;0.022;2022-07-23T15:27:23;8.98;;;1.92;;
37805;SDS011;25082;50.870;0.022;2022-07-23T15:29:49;3.58;;;1.52;;
37805;SDS011;25082;50.870;0.022;2022-07-23T15:32:15;2.83;;;1.13;;
37805;SDS011;25082;50.870;0.022;2022-07-23T15:34:41;3.58;;;1.35;;
37805;SDS011;25082;50.870;0.022;2022-07-23T15:37:06;5.82;;;1.60;;
37805;SDS011;25082;50.870;0.022;2022-07-23T15:39:32;4.78;;;1.58;;
37805;SDS011;25082;50.870;0.022;2022-07-23T15:41:59;4.63;;;1.30;;